sensor_id;sensor_type;location;lat;lon;timestamp;pressure;altitude;pressure_sealevel;temperature;humidity
64610;BME280;51019;46.090;6.350;2023-05-11T00:00:17;96572.34;;;9.19;100.00
64610;BME280;51019;46.090;6.350;2023-05-11T00:02:46;96572.69;;;9.05;100.00
64610;BME280;51019;46.090;6.350;2023-05-11T00:05:16;96562.25;;;9.05;100.00
64610;BME280;51019;46.090;6.350;2023-05-11T00:07:43;96565.16;;;9.02;100.00
64610;BME280;51019;46.090;6.350;2023-05-11T00:10:12;96565.19;;;9.12;100.00
64610;BME280;51019;46.090;6.350;2023-05-11T00:12:42;96553.91;;;9.21;100.00
64610;BME280;51019;46.090;6.350;2023-05-11T00:15:10;96555.66;;;9.01;100.00
64610;BME280;51019;46.090;6.350;2023-05-11T00:17:40;96562.00;;;9.18;100.00
64610;BME280;51019;46.090;6.350;2023-05-11T00:20:09;96563.81;;;9.17;100.00
64610;BME280;51019;46.090;6.350;2023-05-11T00:22:36;96555.03;;;9.37;100.00
64610;BME280;51019;46.090;6.350;2023-05-11T00:25:05;96551.19;;;9.32;100.00
64610;BME280;51019;46.090;6.350;2023-05-11T00:27:33;96551.88;;;9.24;100.00
64610;BME280;51019;46.090;6.350;2023-05-11T00:30:04;96548.97;;;9.27;100.00
64610;BME280;51019;46.090;6.350;2023-05-11T00:32:33;96536.44;;;9.31;100.00
64610;BME280;51019;46.090;6.350;2023-05-11T00:35:02;96546.91;;;9.21;100.00
64610;BME280;51019;46.090;6.350;2023-05-11T00:37:34;96547.47;;;9.25;100.00
64610;BME280;51019;46.090;6.350;2023-05-11T00:40:02;96550.69;;;9.07;100.00
64610;BME280;51019;46.090;6.350;2023-05-11T00:42:29;96551.88;;;9.24;100.00
64610;BME280;51019;46.090;6.350;2023-05-11T00:44:57;96540.16;;;9.28;100.00
64610;BME280;51019;46.090;6.350;2023-05-11T00:47:26;96542.63;;;9.30;100.00
64610;BME280;51019;46.090;6.350;2023-05-11T00:49:54;96545.50;;;9.17;100.00
64610;BME280;51019;46.090;6.350;2023-05-11T00:52:22;96538.59;;;9.16;100.00
64610;BME280;51019;46.090;6.350;2023-05-11T00:54:50;96534.63;;;9.12;100.00
64610;BME280;51019;46.090;6.350;2023-05-11T00:57:17;96528.56;;;9.12;100.00
64610;BME280;51019;46.090;6.350;2023-05-11T00:59:47;96536.31;;;9.23;100.00
64610;BME280;51019;46.090;6.350;2023-05-11T01:02:17;96540.56;;;9.24;100.00
64610;BME280;51019;46.090;6.350;2023-05-11T01:04:48;96540.16;;;9.28;100.00
64610;BME280;51019;46.090;6.350;2023-05-11T01:07:21;96526.38;;;9.17;100.00
64610;BME280;51019;46.090;6.350;2023-05-11T01:10:01;96526.13;;;9.29;100.00
64610;BME280;51019;46.090;6.350;2023-05-11T01:12:33;96524.19;;;9.31;100.00
64610;BME280;51019;46.090;6.350;2023-05-11T01:15:07;96529.56;;;9.30;100.00
64610;BME280;51019;46.090;6.350;2023-05-11T01:17:43;96523.66;;;9.37;100.00
64610;BME280;51019;46.090;6.350;2023-05-11T01:20:22;96513.63;;;9.33;100.00
64610;BME280;51019;46.090;6.350;2023-05-11T01:23:07;96516.91;;;9.25;100.00
64610;BME280;51019;46.090;6.350;2023-05-11T01:25:50;96507.53;;;9.23;100.00
64610;BME280;51019;46.090;6.350;2023-05-11T01:28:28;96509.19;;;9.24;100.00
64610;BME280;51019;46.090;6.350;2023-05-11T01:31:08;96495.53;;;9.10;100.00
64610;BME280;51019;46.090;6.350;2023-05-11T01:33:42;96505.31;;;9.08;100.00
64610;BME280;51019;46.090;6.350;2023-05-11T01:36:15;96514.22;;;9.06;100.00
64610;BME280;51019;46.090;6.350;2023-05-11T01:38:47;96507.22;;;9.06;100.00
64610;BME280;51019;46.090;6.350;2023-05-11T01:41:17;96497.19;;;9.02;100.00
64610;BME280;51019;46.090;6.350;2023-05-11T01:43:58;96510.63;;;8.97;100.00
64610;BME280;51019;46.090;6.350;2023-05-11T01:46:31;96489.69;;;8.88;100.00
64610;BME280;51019;46.090;6.350;2023-05-11T01:49:06;96513.13;;;9.08;100.00
64610;BME280;51019;46.090;6.350;2023-05-11T01:51:36;96514.34;;;9.04;100.00
64610;BME280;51019;46.090;6.350;2023-05-11T01:54:06;96511.03;;;8.93;100.00
64610;BME280;51019;46.090;6.350;2023-05-11T01:56:40;96484.22;;;8.91;100.00
64610;BME280;51019;46.090;6.350;2023-05-11T01:59:11;96509.19;;;9.14;100.00
64610;BME280;51019;46.090;6.350;2023-05-11T02:01:41;96501.59;;;9.11;100.00
64610;BME280;51019;46.090;6.350;2023-05-11T02:04:11;96495.88;;;8.87;100.00
64610;BME280;51019;46.090;6.350;2023-05-11T02:06:42;96515.84;;;8.88;100.00
64610;BME280;51019;46.090;6.350;2023-05-11T02:09:15;96519.91;;;8.81;100.00
64610;BME280;51019;46.090;6.350;2023-05-11T02:11:44;96518.94;;;8.72;100.00
64610;BME280;51019;46.090;6.350;2023-05-11T02:14:12;96520.00;;;8.69;100.00
64610;BME280;51019;46.090;6.350;2023-05-11T02:16:47;96504.16;;;8.61;100.00
64610;BME280;51019;46.090;6.350;2023-05-11T02:19:17;96520.00;;;8.69;100.00
64610;BME280;51019;46.090;6.350;2023-05-11T02:21:46;96518.09;;;8.41;100.00
64610;BME280;51019;46.090;6.350;2023-05-11T02:24:15;96521.97;;;8.47;100.00
64610;BME280;51019;46.090;6.350;2023-05-11T02:26:44;96509.13;;;8.34;100.00
64610;BME280;51019;46.090;6.350;2023-05-11T02:29:11;96524.19;;;8.51;100.00
64610;BME280;51019;46.090;6.350;2023-05-11T02:31:43;96502.59;;;8.49;100.00
64610;BME280;51019;46.090;6.350;2023-05-11T02:34:17;96517.06;;;8.53;100.00
64610;BME280;51019;46.090;6.350;2023-05-11T02:36:50;96533.03;;;8.60;100.00
64610;BME280;51019;46.090;6.350;2023-05-11T02:39:20;96524.66;;;8.56;100.00
64610;BME280;51019;46.090;6.350;2023-05-11T02:41:58;96498.88;;;8.42;100.00
64610;BME280;51019;46.090;6.350;2023-05-11T02:44:33;96527.59;;;8.72;100.00
64610;BME280;51019;46.090;6.350;2023-05-11T02:47:05;96516.53;;;8.90;100.00
64610;BME280;51019;46.090;6.350;2023-05-11T02:49:38;96518.97;;;8.82;100.00
64610;BME280;51019;46.090;6.350;2023-05-11T02:52:07;96505.47;;;8.77;100.00
64610;BME280;51019;46.090;6.350;2023-05-11T02:54:39;96507.13;;;8.78;100.00
64610;BME280;51019;46.090;6.350;2023-05-11T02:57:08;96509.00;;;8.66;100.00
64610;BME280;51019;46.090;6.350;2023-05-11T02:59:37;96488.22;;;8.55;100.00
64610;BME280;51019;46.090;6.350;2023-05-11T03:02:05;96508.59;;;8.70;100.00
64610;BME280;51019;46.090;6.350;2023-05-11T03:04:32;96497.03;;;8.63;100.00
64610;BME280;51019;46.090;6.350;2023-05-11T03:07:05;96512.25;;;8.89;100.00
64610;BME280;51019;46.090;6.350;2023-05-11T03:09:35;96515.22;;;8.74;100.00
64610;BME280;51019;46.090;6.350;2023-05-11T03:12:03;96516.88;;;8.76;100.00
64610;BME280;51019;46.090;6.350;2023-05-11T03:14:33;96508.94;;;8.87;100.00
64610;BME280;51019;46.090;6.350;2023-05-11T03:17:03;96509.56;;;8.69;100.00
64610;BME280;51019;46.090;6.350;2023-05-11T03:19:31;96501.06;;;8.67;100.00
64610;BME280;51019;46.090;6.350;2023-05-11T03:22:00;96486.59;;;8.63;100.00
64610;BME280;51019;46.090;6.350;2023-05-11T03:24:34;96497.06;;;8.73;100.00
64610;BME280;51019;46.090;6.350;2023-05-11T03:27:05;96482.75;;;8.67;100.00
64610;BME280;51019;46.090;6.350;2023-05-11T03:29:36;96494.78;;;8.80;100.00
64610;BME280;51019;46.090;6.350;2023-05-11T03:32:06;96493.78;;;8.81;100.00
64610;BME280;51019;46.090;6.350;2023-05-11T03:34:34;96494.09;;;8.87;100.00
64610;BME280;51019;46.090;6.350;2023-05-11T03:37:04;96490.22;;;8.82;100.00
64610;BME280;51019;46.090;6.350;2023-05-11T03:39:37;96487.59;;;8.82;100.00
64610;BME280;51019;46.090;6.350;2023-05-11T03:42:06;96483.31;;;8.81;100.00
64610;BME280;51019;46.090;6.350;2023-05-11T03:44:36;96485.16;;;8.90;100.00
64610;BME280;51019;46.090;6.350;2023-05-11T03:47:08;96482.00;;;8.86;100.00
64610;BME280;51019;46.090;6.350;2023-05-11T03:49:37;96491.75;;;8.94;100.00
64610;BME280;51019;46.090;6.350;2023-05-11T03:52:07;96479.50;;;8.85;100.00
64610;BME280;51019;46.090;6.350;2023-05-11T03:54:37;96453.25;;;8.46;100.00
64610;BME280;51019;46.090;6.350;2023-05-11T03:57:07;96469.09;;;8.54;100.00
64610;BME280;51019;46.090;6.350;2023-05-11T03:59:38;96453.53;;;8.53;100.00
64610;BME280;51019;46.090;6.350;2023-05-11T04:02:07;96437.00;;;8.43;100.00
64610;BME280;51019;46.090;6.350;2023-05-11T04:04:36;96467.09;;;8.67;100.00
64610;BME280;51019;46.090;6.350;2023-05-11T04:07:05;96472.44;;;8.66;100.00
64610;BME280;51019;46.090;6.350;2023-05-11T04:09:38;96469.50;;;8.59;100.00
64610;BME280;51019;46.090;6.350;2023-05-11T04:12:08;96472.81;;;8.61;100.00
64610;BME280;51019;46.090;6.350;2023-05-11T04:14:39;96474.50;;;8.72;100.00
64610;BME280;51019;46.090;6.350;2023-05-11T04:17:09;96470.66;;;8.66;100.00
64610;BME280;51019;46.090;6.350;2023-05-11T04:19:37;96468.31;;;8.73;100.00
64610;BME280;51019;46.090;6.350;2023-05-11T04:22:11;96455.50;;;8.70;100.00
64610;BME280;51019;46.090;6.350;2023-05-11T04:24:40;96465.94;;;9.00;100.00
64610;BME280;51019;46.090;6.350;2023-05-11T04:27:08;96433.13;;;8.77;100.00
64610;BME280;51019;46.090;6.350;2023-05-11T04:29:37;96454.09;;;8.96;100.00
64610;BME280;51019;46.090;6.350;2023-05-11T04:32:05;96449.28;;;9.01;100.00
64610;BME280;51019;46.090;6.350;2023-05-11T04:34:33;96449.00;;;9.04;100.00
64610;BME280;51019;46.090;6.350;2023-05-11T04:37:01;96441.28;;;9.03;100.00
64610;BME280;51019;46.090;6.350;2023-05-11T04:39:31;96431.13;;;8.90;100.00
64610;BME280;51019;46.090;6.350;2023-05-11T04:42:03;96448.19;;;9.04;100.00
64610;BME280;51019;46.090;6.350;2023-05-11T04:44:32;96431.94;;;8.91;100.00
64610;BME280;51019;46.090;6.350;2023-05-11T04:46:59;96426.84;;;8.89;100.00
64610;BME280;51019;46.090;6.350;2023-05-11T04:49:31;96441.84;;;9.06;100.00
64610;BME280;51019;46.090;6.350;2023-05-11T04:51:59;96445.88;;;9.10;100.00
64610;BME280;51019;46.090;6.350;2023-05-11T04:54:29;96447.63;;;9.00;100.00
64610;BME280;51019;46.090;6.350;2023-05-11T04:57:03;96468.00;;;9.06;100.00
64610;BME280;51019;46.090;6.350;2023-05-11T04:59:30;96460.41;;;9.03;100.00
64610;BME280;51019;46.090;6.350;2023-05-11T05:02:00;96460.03;;;9.08;100.00
64610;BME280;51019;46.090;6.350;2023-05-11T05:04:28;96463.34;;;9.20;100.00
64610;BME280;51019;46.090;6.350;2023-05-11T05:06:56;96465.00;;;9.21;100.00
64610;BME280;51019;46.090;6.350;2023-05-11T05:09:24;96450.41;;;9.08;100.00
64610;BME280;51019;46.090;6.350;2023-05-11T05:11:55;96460.47;;;9.23;100.00
64610;BME280;51019;46.090;6.350;2023-05-11T05:14:26;96421.06;;;8.86;100.00
64610;BME280;51019;46.090;6.350;2023-05-11T05:16:54;96457.41;;;8.98;100.00
64610;BME280;51019;46.090;6.350;2023-05-11T05:19:25;96447.63;;;8.91;100.00
64610;BME280;51019;46.090;6.350;2023-05-11T05:21:53;96462.53;;;9.19;100.00
64610;BME280;51019;46.090;6.350;2023-05-11T05:24:22;96449.84;;;9.15;100.00
64610;BME280;51019;46.090;6.350;2023-05-11T05:26:53;96456.88;;;9.14;100.00
64610;BME280;51019;46.090;6.350;2023-05-11T05:29:21;96461.94;;;9.06;100.00
64610;BME280;51019;46.090;6.350;2023-05-11T05:31:51;96465.38;;;9.06;100.00
64610;BME280;51019;46.090;6.350;2023-05-11T05:34:19;96461.25;;;9.04;100.00
64610;BME280;51019;46.090;6.350;2023-05-11T05:36:46;96455.38;;;9.21;100.00
64610;BME280;51019;46.090;6.350;2023-05-11T05:39:15;96466.34;;;9.15;100.00
64610;BME280;51019;46.090;6.350;2023-05-11T05:41:43;96458.81;;;9.31;100.00
64610;BME280;51019;46.090;6.350;2023-05-11T05:44:10;96455.50;;;9.29;100.00
64610;BME280;51019;46.090;6.350;2023-05-11T05:46:42;96465.00;;;9.40;100.00
64610;BME280;51019;46.090;6.350;2023-05-11T05:49:13;96467.63;;;9.30;100.00
64610;BME280;51019;46.090;6.350;2023-05-11T05:51:41;96451.53;;;9.25;100.00
64610;BME280;51019;46.090;6.350;2023-05-11T05:54:16;96424.13;;;9.10;100.00
64610;BME280;51019;46.090;6.350;2023-05-11T05:56:49;96449.63;;;9.46;100.00
64610;BME280;51019;46.090;6.350;2023-05-11T05:59:17;96460.47;;;9.32;100.00
64610;BME280;51019;46.090;6.350;2023-05-11T06:01:48;96434.19;;;9.24;100.00
64610;BME280;51019;46.090;6.350;2023-05-11T06:04:19;96460.63;;;9.69;100.00
64610;BME280;51019;46.090;6.350;2023-05-11T06:06:48;96461.44;;;9.89;100.00
64610;BME280;51019;46.090;6.350;2023-05-11T06:09:19;96467.88;;;10.14;100.00
64610;BME280;51019;46.090;6.350;2023-05-11T06:11:49;96466.72;;;10.16;100.00
64610;BME280;51019;46.090;6.350;2023-05-11T06:14:18;96467.44;;;10.38;100.00
64610;BME280;51019;46.090;6.350;2023-05-11T06:16:47;96443.22;;;9.97;100.00
64610;BME280;51019;46.090;6.350;2023-05-11T06:19:14;96449.00;;;10.01;100.00
64610;BME280;51019;46.090;6.350;2023-05-11T06:21:44;96465.53;;;10.21;100.00
64610;BME280;51019;46.090;6.350;2023-05-11T06:24:13;96432.09;;;10.42;100.00
64610;BME280;51019;46.090;6.350;2023-05-11T06:26:41;96452.34;;;10.77;100.00
64610;BME280;51019;46.090;6.350;2023-05-11T06:29:10;96461.84;;;10.50;100.00
64610;BME280;51019;46.090;6.350;2023-05-11T06:31:40;96446.91;;;10.88;100.00
64610;BME280;51019;46.090;6.350;2023-05-11T06:34:09;96449.13;;;10.93;100.00
64610;BME280;51019;46.090;6.350;2023-05-11T06:36:36;96393.72;;;10.78;100.00
64610;BME280;51019;46.090;6.350;2023-05-11T06:39:07;96432.84;;;11.07;100.00
64610;BME280;51019;46.090;6.350;2023-05-11T06:41:35;96445.03;;;11.25;100.00
64610;BME280;51019;46.090;6.350;2023-05-11T06:44:03;96447.59;;;11.35;100.00
64610;BME280;51019;46.090;6.350;2023-05-11T06:46:31;96451.66;;;11.47;100.00
64610;BME280;51019;46.090;6.350;2023-05-11T06:49:02;96447.81;;;11.42;100.00
64610;BME280;51019;46.090;6.350;2023-05-11T06:51:32;96446.34;;;11.39;100.00
64610;BME280;51019;46.090;6.350;2023-05-11T06:53:59;96444.88;;;11.62;100.00
64610;BME280;51019;46.090;6.350;2023-05-11T06:56:29;96443.47;;;11.50;100.00
64610;BME280;51019;46.090;6.350;2023-05-11T06:58:58;96424.09;;;11.69;100.00
64610;BME280;51019;46.090;6.350;2023-05-11T07:01:26;96446.16;;;11.94;100.00
64610;BME280;51019;46.090;6.350;2023-05-11T07:03:55;96444.47;;;12.11;100.00
64610;BME280;51019;46.090;6.350;2023-05-11T07:06:22;96452.44;;;12.53;100.00
64610;BME280;51019;46.090;6.350;2023-05-11T07:08:50;96443.69;;;12.44;100.00
64610;BME280;51019;46.090;6.350;2023-05-11T07:11:22;96431.41;;;12.19;100.00
64610;BME280;51019;46.090;6.350;2023-05-11T07:13:53;96439.34;;;12.27;100.00
64610;BME280;51019;46.090;6.350;2023-05-11T07:16:21;96435.41;;;12.05;100.00
64610;BME280;51019;46.090;6.350;2023-05-11T07:18:49;96440.22;;;11.74;100.00
64610;BME280;51019;46.090;6.350;2023-05-11T07:21:17;96431.78;;;12.32;100.00
64610;BME280;51019;46.090;6.350;2023-05-11T07:23:46;96431.16;;;11.69;100.00
64610;BME280;51019;46.090;6.350;2023-05-11T07:26:14;96434.59;;;11.87;100.00
64610;BME280;51019;46.090;6.350;2023-05-11T07:28:42;96433.53;;;11.97;100.00
64610;BME280;51019;46.090;6.350;2023-05-11T07:31:14;96419.75;;;11.95;100.00
64610;BME280;51019;46.090;6.350;2023-05-11T07:33:43;96435.41;;;12.05;100.00
64610;BME280;51019;46.090;6.350;2023-05-11T07:36:11;96434.84;;;12.87;100.00
64610;BME280;51019;46.090;6.350;2023-05-11T07:38:39;96432.75;;;12.31;100.00
64610;BME280;51019;46.090;6.350;2023-05-11T07:41:08;96409.03;;;12.41;100.00
64610;BME280;51019;46.090;6.350;2023-05-11T07:43:36;96423.22;;;12.56;100.00
64610;BME280;51019;46.090;6.350;2023-05-11T07:46:04;96398.81;;;12.80;100.00
64610;BME280;51019;46.090;6.350;2023-05-11T07:48:35;96423.34;;;12.88;100.00
64610;BME280;51019;46.090;6.350;2023-05-11T07:51:03;96419.84;;;13.22;100.00
64610;BME280;51019;46.090;6.350;2023-05-11T07:53:32;96424.50;;;12.86;100.00
64610;BME280;51019;46.090;6.350;2023-05-11T07:55:59;96423.34;;;12.88;100.00
64610;BME280;51019;46.090;6.350;2023-05-11T07:58:29;96421.19;;;13.26;100.00
64610;BME280;51019;46.090;6.350;2023-05-11T08:00:57;96423.50;;;13.45;100.00
64610;BME280;51019;46.090;6.350;2023-05-11T08:03:26;96419.09;;;13.86;100.00
64610;BME280;51019;46.090;6.350;2023-05-11T08:05:54;96411.84;;;13.72;100.00
64610;BME280;51019;46.090;6.350;2023-05-11T08:08:23;96415.28;;;13.80;100.00
64610;BME280;51019;46.090;6.350;2023-05-11T08:10:50;96411.31;;;13.44;100.00
64610;BME280;51019;46.090;6.350;2023-05-11T08:13:18;96408.38;;;13.47;100.00
64610;BME280;51019;46.090;6.350;2023-05-11T08:15:47;96400.81;;;13.93;100.00
64610;BME280;51019;46.090;6.350;2023-05-11T08:18:17;96395.69;;;14.07;100.00
64610;BME280;51019;46.090;6.350;2023-05-11T08:20:45;96405.44;;;13.99;100.00
64610;BME280;51019;46.090;6.350;2023-05-11T08:23:14;96416.59;;;14.01;100.00
64610;BME280;51019;46.090;6.350;2023-05-11T08:25:50;96408.41;;;13.63;100.00
64610;BME280;51019;46.090;6.350;2023-05-11T08:28:18;96403.78;;;13.81;100.00
64610;BME280;51019;46.090;6.350;2023-05-11T08:30:52;96401.13;;;13.90;100.00
64610;BME280;51019;46.090;6.350;2023-05-11T08:33:19;96399.50;;;13.97;100.00
64610;BME280;51019;46.090;6.350;2023-05-11T08:35:48;96407.53;;;14.11;100.00
64610;BME280;51019;46.090;6.350;2023-05-11T08:38:17;96356.31;;;14.06;100.00
64610;BME280;51019;46.090;6.350;2023-05-11T08:40:45;96403.69;;;14.46;100.00
64610;BME280;51019;46.090;6.350;2023-05-11T08:43:14;96384.56;;;14.36;100.00
64610;BME280;51019;46.090;6.350;2023-05-11T08:45:44;96384.50;;;13.57;100.00
64610;BME280;51019;46.090;6.350;2023-05-11T08:48:13;96395.06;;;13.49;100.00
64610;BME280;51019;46.090;6.350;2023-05-11T08:50:43;96400.31;;;13.89;100.00
64610;BME280;51019;46.090;6.350;2023-05-11T08:53:11;96391.03;;;14.26;100.00
64610;BME280;51019;46.090;6.350;2023-05-11T08:55:41;96389.84;;;14.36;100.00
64610;BME280;51019;46.090;6.350;2023-05-11T08:58:11;96387.72;;;14.24;100.00
64610;BME280;51019;46.090;6.350;2023-05-11T09:00:45;96380.63;;;14.48;100.00
64610;BME280;51019;46.090;6.350;2023-05-11T09:03:16;96390.03;;;15.67;94.63
64610;BME280;51019;46.090;6.350;2023-05-11T09:05:45;96379.66;;;16.03;93.13
64610;BME280;51019;46.090;6.350;2023-05-11T09:08:13;96384.78;;;16.19;86.12
64610;BME280;51019;46.090;6.350;2023-05-11T09:10:43;96385.78;;;16.32;75.29
64610;BME280;51019;46.090;6.350;2023-05-11T09:13:11;96383.56;;;15.69;75.86
64610;BME280;51019;46.090;6.350;2023-05-11T09:15:41;96379.97;;;15.85;75.65
64610;BME280;51019;46.090;6.350;2023-05-11T09:18:08;96371.56;;;15.81;75.75
64610;BME280;51019;46.090;6.350;2023-05-11T09:20:42;96371.28;;;16.73;71.84
64610;BME280;51019;46.090;6.350;2023-05-11T09:23:17;96376.34;;;15.86;70.98
64610;BME280;51019;46.090;6.350;2023-05-11T09:25:48;96373.88;;;15.61;71.04
64610;BME280;51019;46.090;6.350;2023-05-11T09:28:19;96367.09;;;15.67;70.87
64610;BME280;51019;46.090;6.350;2023-05-11T09:30:47;96366.69;;;15.24;69.29
64610;BME280;51019;46.090;6.350;2023-05-11T09:33:20;96353.47;;;15.02;72.91
64610;BME280;51019;46.090;6.350;2023-05-11T09:35:53;96339.66;;;15.45;69.95
64610;BME280;51019;46.090;6.350;2023-05-11T09:38:24;96329.94;;;15.69;66.69
64610;BME280;51019;46.090;6.350;2023-05-11T09:40:59;96317.19;;;16.16;66.64
64610;BME280;51019;46.090;6.350;2023-05-11T09:43:29;96346.13;;;16.32;64.00
64610;BME280;51019;46.090;6.350;2023-05-11T09:45:59;96354.13;;;18.04;61.29
64610;BME280;51019;46.090;6.350;2023-05-11T09:48:31;96332.88;;;17.76;58.78
64610;BME280;51019;46.090;6.350;2023-05-11T09:51:02;96333.81;;;17.90;59.84
64610;BME280;51019;46.090;6.350;2023-05-11T09:53:34;96337.03;;;17.22;60.44
64610;BME280;51019;46.090;6.350;2023-05-11T09:56:04;96329.88;;;17.37;60.30
64610;BME280;51019;46.090;6.350;2023-05-11T09:58:45;96329.66;;;17.60;59.43
64610;BME280;51019;46.090;6.350;2023-05-11T10:01:13;96332.03;;;18.32;58.40
64610;BME280;51019;46.090;6.350;2023-05-11T10:03:49;96332.31;;;17.81;58.90
64610;BME280;51019;46.090;6.350;2023-05-11T10:06:18;96332.31;;;18.43;56.62
64610;BME280;51019;46.090;6.350;2023-05-11T10:08:47;96307.44;;;18.99;55.86
64610;BME280;51019;46.090;6.350;2023-05-11T10:11:17;96316.69;;;17.93;56.10
64610;BME280;51019;46.090;6.350;2023-05-11T10:13:47;96309.41;;;18.36;56.06
64610;BME280;51019;46.090;6.350;2023-05-11T10:16:16;96294.81;;;19.07;56.63
64610;BME280;51019;46.090;6.350;2023-05-11T10:18:45;96291.97;;;19.15;53.59
64610;BME280;51019;46.090;6.350;2023-05-11T10:21:17;96300.63;;;19.77;53.14
64610;BME280;51019;46.090;6.350;2023-05-11T10:23:45;96298.53;;;19.26;54.16
64610;BME280;51019;46.090;6.350;2023-05-11T10:26:18;96299.97;;;20.01;53.90
64610;BME280;51019;46.090;6.350;2023-05-11T10:28:46;96296.31;;;20.09;49.65
64610;BME280;51019;46.090;6.350;2023-05-11T10:31:16;96272.41;;;19.69;53.86
64610;BME280;51019;46.090;6.350;2023-05-11T10:33:49;96268.44;;;18.51;51.86
64610;BME280;51019;46.090;6.350;2023-05-11T10:36:18;96285.81;;;18.13;53.60
64610;BME280;51019;46.090;6.350;2023-05-11T10:38:53;96286.56;;;18.00;53.14
64610;BME280;51019;46.090;6.350;2023-05-11T10:41:32;96283.63;;;17.39;53.65
64610;BME280;51019;46.090;6.350;2023-05-11T10:44:19;96271.31;;;16.53;57.23
64610;BME280;51019;46.090;6.350;2023-05-11T10:47:07;96273.88;;;16.47;58.89
64610;BME280;51019;46.090;6.350;2023-05-11T10:49:50;96282.97;;;16.74;58.72
64610;BME280;51019;46.090;6.350;2023-05-11T10:52:38;96267.44;;;16.34;59.86
64610;BME280;51019;46.090;6.350;2023-05-11T10:55:24;96269.06;;;16.36;60.92
64610;BME280;51019;46.090;6.350;2023-05-11T10:58:04;96244.34;;;16.43;62.13
64610;BME280;51019;46.090;6.350;2023-05-11T11:01:22;96257.13;;;16.61;62.88
64610;BME280;51019;46.090;6.350;2023-05-11T11:03:57;96263.94;;;17.27;62.41
64610;BME280;51019;46.090;6.350;2023-05-11T11:06:27;96258.06;;;17.04;60.07
64610;BME280;51019;46.090;6.350;2023-05-11T11:08:56;96254.63;;;16.89;55.23
64610;BME280;51019;46.090;6.350;2023-05-11T11:11:28;96239.00;;;16.22;57.06
64610;BME280;51019;46.090;6.350;2023-05-11T11:13:59;96236.13;;;16.38;60.36
64610;BME280;51019;46.090;6.350;2023-05-11T11:16:28;96265.34;;;16.81;60.72
64610;BME280;51019;46.090;6.350;2023-05-11T11:19:35;96254.91;;;16.43;60.63
64610;BME280;51019;46.090;6.350;2023-05-11T11:22:03;96253.06;;;16.58;63.08
64610;BME280;51019;46.090;6.350;2023-05-11T11:24:49;96255.56;;;16.45;63.01
64610;BME280;51019;46.090;6.350;2023-05-11T11:27:16;96256.47;;;16.38;65.70
64610;BME280;51019;46.090;6.350;2023-05-11T11:30:15;96246.75;;;16.09;66.34
64610;BME280;51019;46.090;6.350;2023-05-11T11:32:43;96255.03;;;16.35;65.89
64610;BME280;51019;46.090;6.350;2023-05-11T11:35:44;96241.81;;;16.35;65.44
64610;BME280;51019;46.090;6.350;2023-05-11T11:38:15;96234.59;;;16.14;65.86
64610;BME280;51019;46.090;6.350;2023-05-11T11:40:45;96250.13;;;15.88;65.84
64610;BME280;51019;46.090;6.350;2023-05-11T11:43:15;96246.81;;;15.71;64.85
64610;BME280;51019;46.090;6.350;2023-05-11T11:45:52;96232.78;;;16.29;64.99
64610;BME280;51019;46.090;6.350;2023-05-11T11:48:28;96243.97;;;16.46;63.12
64610;BME280;51019;46.090;6.350;2023-05-11T11:51:01;96235.59;;;17.00;60.00
64610;BME280;51019;46.090;6.350;2023-05-11T11:54:03;96236.88;;;17.81;58.00
64610;BME280;51019;46.090;6.350;2023-05-11T11:56:43;96234.69;;;17.35;55.83
64610;BME280;51019;46.090;6.350;2023-05-11T11:59:12;96215.47;;;17.55;56.81
64610;BME280;51019;46.090;6.350;2023-05-11T12:01:43;96209.47;;;16.90;54.87
64610;BME280;51019;46.090;6.350;2023-05-11T12:07:14;96205.94;;;19.10;52.19
64610;BME280;51019;46.090;6.350;2023-05-11T12:09:44;96203.66;;;19.92;47.44
64610;BME280;51019;46.090;6.350;2023-05-11T12:12:16;96213.91;;;21.48;47.08
64610;BME280;51019;46.090;6.350;2023-05-11T12:14:45;96182.03;;;19.63;50.15
64610;BME280;51019;46.090;6.350;2023-05-11T12:17:23;96203.50;;;19.28;52.56
64610;BME280;51019;46.090;6.350;2023-05-11T12:19:52;96195.84;;;18.66;49.63
64610;BME280;51019;46.090;6.350;2023-05-11T12:22:23;96197.31;;;18.21;51.39
64610;BME280;51019;46.090;6.350;2023-05-11T12:24:54;96180.38;;;18.15;51.15
64610;BME280;51019;46.090;6.350;2023-05-11T12:27:24;96192.44;;;19.05;51.01
64610;BME280;51019;46.090;6.350;2023-05-11T12:29:52;96192.88;;;20.39;46.22
64610;BME280;51019;46.090;6.350;2023-05-11T12:32:26;96178.22;;;18.51;51.30
64610;BME280;51019;46.090;6.350;2023-05-11T12:34:58;96171.47;;;17.88;54.69
64610;BME280;51019;46.090;6.350;2023-05-11T12:37:27;96194.06;;;17.28;59.85
64610;BME280;51019;46.090;6.350;2023-05-11T12:39:56;96194.91;;;17.29;59.81
64610;BME280;51019;46.090;6.350;2023-05-11T12:42:25;96184.41;;;17.14;57.31
64610;BME280;51019;46.090;6.350;2023-05-11T12:44:53;96180.19;;;16.98;56.77
64610;BME280;51019;46.090;6.350;2023-05-11T12:47:22;96182.22;;;16.96;58.90
64610;BME280;51019;46.090;6.350;2023-05-11T12:49:52;96176.94;;;18.28;54.51
64610;BME280;51019;46.090;6.350;2023-05-11T12:52:22;96173.09;;;18.43;55.36
64610;BME280;51019;46.090;6.350;2023-05-11T12:54:52;96174.06;;;19.30;53.04
64610;BME280;51019;46.090;6.350;2023-05-11T12:57:24;96149.94;;;19.25;49.66
64610;BME280;51019;46.090;6.350;2023-05-11T13:00:10;96167.19;;;20.00;49.28
64610;BME280;51019;46.090;6.350;2023-05-11T13:02:48;96138.53;;;20.02;48.74
64610;BME280;51019;46.090;6.350;2023-05-11T13:05:25;96161.41;;;19.05;48.14
64610;BME280;51019;46.090;6.350;2023-05-11T13:07:57;96155.84;;;19.73;46.34
64610;BME280;51019;46.090;6.350;2023-05-11T13:10:27;96152.88;;;20.07;47.98
64610;BME280;51019;46.090;6.350;2023-05-11T13:12:55;96154.09;;;19.98;46.29
64610;BME280;51019;46.090;6.350;2023-05-11T13:15:24;96136.41;;;19.72;48.01
64610;BME280;51019;46.090;6.350;2023-05-11T13:17:56;96138.25;;;19.72;51.01
64610;BME280;51019;46.090;6.350;2023-05-11T13:20:28;96141.50;;;18.55;49.94